Braco do Norte, Brazil
Current Conditions -  °F | °C
As of 4:00 PM on Friday 28 Nov 2014 (Local Time) from SBCM Reporting Station
Broken Clouds Broken Clouds  
Wind Chill: 77°   Ceiling: 2000
Heat Index: 79°   Visibility: 6mi
Dew Point: 64°   Wind: 7mph
Humidity: 65%   Direction: 120°ESE
Pressure: 30.03"   Gusts: NA
Location:  28.28°S, 49.17°W
Report Text: SBCM 281800Z 12006KT 9999 FEW012 BKN020 25/18 Q1017
Loading
Personal Weather Stations






























Interactive Weather Map New forecast layout! Learn more

10-Day Weather Forecast

Advertisements
Track Severe Weather on mobile